sensor_id;sensor_type;location;lat;lon;timestamp;temperature;humidity
52513;DHT22;38422;53.172;6.974;2023-11-19T00:01:43;9.20;99.90
52513;DHT22;38422;53.172;6.974;2023-11-19T00:04:09;9.20;99.90
52513;DHT22;38422;53.172;6.974;2023-11-19T00:06:35;9.30;99.90
52513;DHT22;38422;53.172;6.974;2023-11-19T00:09:00;9.40;99.90
52513;DHT22;38422;53.172;6.974;2023-11-19T00:11:26;9.50;99.90
52513;DHT22;38422;53.172;6.974;2023-11-19T00:13:52;9.50;99.90
52513;DHT22;38422;53.172;6.974;2023-11-19T00:16:19;9.60;99.90
52513;DHT22;38422;53.172;6.974;2023-11-19T00:18:44;9.70;99.90
52513;DHT22;38422;53.172;6.974;2023-11-19T00:21:13;9.70;99.90
52513;DHT22;38422;53.172;6.974;2023-11-19T00:23:39;9.70;99.90
52513;DHT22;38422;53.172;6.974;2023-11-19T00:26:05;9.80;99.90
52513;DHT22;38422;53.172;6.974;2023-11-19T00:28:32;9.80;99.90
52513;DHT22;38422;53.172;6.974;2023-11-19T00:30:58;9.80;99.90
52513;DHT22;38422;53.172;6.974;2023-11-19T00:33:24;9.80;99.90
52513;DHT22;38422;53.172;6.974;2023-11-19T00:35:50;9.80;99.90
52513;DHT22;38422;53.172;6.974;2023-11-19T00:38:16;9.80;99.90
52513;DHT22;38422;53.172;6.974;2023-11-19T00:40:41;9.90;99.90
52513;DHT22;38422;53.172;6.974;2023-11-19T00:43:07;9.90;99.90
52513;DHT22;38422;53.172;6.974;2023-11-19T00:45:33;9.90;99.90
52513;DHT22;38422;53.172;6.974;2023-11-19T00:47:59;9.90;99.90
52513;DHT22;38422;53.172;6.974;2023-11-19T00:50:25;10.00;99.90
52513;DHT22;38422;53.172;6.974;2023-11-19T00:52:51;10.00;99.90
52513;DHT22;38422;53.172;6.974;2023-11-19T00:55:17;10.00;99.90
52513;DHT22;38422;53.172;6.974;2023-11-19T00:57:43;10.10;99.90
52513;DHT22;38422;53.172;6.974;2023-11-19T01:00:09;10.10;99.90
52513;DHT22;38422;53.172;6.974;2023-11-19T01:02:45;10.20;99.90
52513;DHT22;38422;53.172;6.974;2023-11-19T01:05:11;10.20;99.90
52513;DHT22;38422;53.172;6.974;2023-11-19T01:07:39;10.20;99.90
52513;DHT22;38422;53.172;6.974;2023-11-19T01:10:05;10.20;99.90
52513;DHT22;38422;53.172;6.974;2023-11-19T01:12:32;10.20;99.90
52513;DHT22;38422;53.172;6.974;2023-11-19T01:14:58;10.30;99.90
52513;DHT22;38422;53.172;6.974;2023-11-19T01:17:24;10.30;99.90
52513;DHT22;38422;53.172;6.974;2023-11-19T01:19:49;10.30;99.90
52513;DHT22;38422;53.172;6.974;2023-11-19T01:22:15;10.30;99.90
52513;DHT22;38422;53.172;6.974;2023-11-19T01:24:41;10.40;99.90
52513;DHT22;38422;53.172;6.974;2023-11-19T01:27:07;10.40;99.90
52513;DHT22;38422;53.172;6.974;2023-11-19T01:29:33;10.50;99.90
52513;DHT22;38422;53.172;6.974;2023-11-19T01:31:59;10.50;99.90
52513;DHT22;38422;53.172;6.974;2023-11-19T01:34:25;10.40;99.90
52513;DHT22;38422;53.172;6.974;2023-11-19T01:36:50;10.50;99.90
52513;DHT22;38422;53.172;6.974;2023-11-19T01:39:16;10.60;99.90
52513;DHT22;38422;53.172;6.974;2023-11-19T01:41:42;10.60;99.90
52513;DHT22;38422;53.172;6.974;2023-11-19T01:44:08;10.70;99.90
52513;DHT22;38422;53.172;6.974;2023-11-19T01:46:34;10.70;99.90
52513;DHT22;38422;53.172;6.974;2023-11-19T01:49:02;10.70;99.90
52513;DHT22;38422;53.172;6.974;2023-11-19T01:51:28;10.80;99.90
52513;DHT22;38422;53.172;6.974;2023-11-19T01:53:55;10.90;99.90
52513;DHT22;38422;53.172;6.974;2023-11-19T01:56:22;10.90;99.90
52513;DHT22;38422;53.172;6.974;2023-11-19T01:58:48;10.90;99.90
52513;DHT22;38422;53.172;6.974;2023-11-19T02:01:15;10.90;99.90
52513;DHT22;38422;53.172;6.974;2023-11-19T02:03:41;10.90;99.90
52513;DHT22;38422;53.172;6.974;2023-11-19T02:06:07;10.90;99.90
52513;DHT22;38422;53.172;6.974;2023-11-19T02:08:35;10.90;99.90
52513;DHT22;38422;53.172;6.974;2023-11-19T02:11:02;11.00;99.90
52513;DHT22;38422;53.172;6.974;2023-11-19T02:13:28;11.00;99.90
52513;DHT22;38422;53.172;6.974;2023-11-19T02:15:54;11.00;99.90
52513;DHT22;38422;53.172;6.974;2023-11-19T02:18:25;11.00;99.90
52513;DHT22;38422;53.172;6.974;2023-11-19T02:20:54;11.00;99.90
52513;DHT22;38422;53.172;6.974;2023-11-19T02:23:20;11.00;99.90
52513;DHT22;38422;53.172;6.974;2023-11-19T02:28:49;11.00;99.90
52513;DHT22;38422;53.172;6.974;2023-11-19T02:31:15;11.00;99.90
52513;DHT22;38422;53.172;6.974;2023-11-19T02:33:41;11.00;99.90
52513;DHT22;38422;53.172;6.974;2023-11-19T02:36:07;11.00;99.90
52513;DHT22;38422;53.172;6.974;2023-11-19T02:38:34;11.00;99.90
52513;DHT22;38422;53.172;6.974;2023-11-19T02:41:02;11.00;99.90
52513;DHT22;38422;53.172;6.974;2023-11-19T02:43:28;11.00;99.90
52513;DHT22;38422;53.172;6.974;2023-11-19T02:45:57;11.00;99.90
52513;DHT22;38422;53.172;6.974;2023-11-19T02:48:22;11.00;99.90
52513;DHT22;38422;53.172;6.974;2023-11-19T02:50:48;11.00;99.90
52513;DHT22;38422;53.172;6.974;2023-11-19T02:53:14;11.00;99.90
52513;DHT22;38422;53.172;6.974;2023-11-19T02:55:39;11.00;99.90
52513;DHT22;38422;53.172;6.974;2023-11-19T02:58:06;11.00;99.90
52513;DHT22;38422;53.172;6.974;2023-11-19T03:00:45;11.10;99.90
52513;DHT22;38422;53.172;6.974;2023-11-19T03:03:20;11.10;99.90
52513;DHT22;38422;53.172;6.974;2023-11-19T03:05:48;11.10;99.90
52513;DHT22;38422;53.172;6.974;2023-11-19T03:08:15;11.10;99.90
52513;DHT22;38422;53.172;6.974;2023-11-19T03:10:41;11.10;99.90
52513;DHT22;38422;53.172;6.974;2023-11-19T03:13:12;11.10;99.90
52513;DHT22;38422;53.172;6.974;2023-11-19T03:15:42;11.10;99.90
52513;DHT22;38422;53.172;6.974;2023-11-19T03:18:08;11.10;99.90
52513;DHT22;38422;53.172;6.974;2023-11-19T03:20:34;11.10;99.90
52513;DHT22;38422;53.172;6.974;2023-11-19T03:22:59;11.20;99.90
52513;DHT22;38422;53.172;6.974;2023-11-19T03:25:27;11.20;99.90
52513;DHT22;38422;53.172;6.974;2023-11-19T03:27:58;11.20;99.90
52513;DHT22;38422;53.172;6.974;2023-11-19T03:30:24;11.20;99.90
52513;DHT22;38422;53.172;6.974;2023-11-19T03:32:50;11.20;99.90
52513;DHT22;38422;53.172;6.974;2023-11-19T03:35:16;11.30;99.90
52513;DHT22;38422;53.172;6.974;2023-11-19T03:37:41;11.30;99.90
52513;DHT22;38422;53.172;6.974;2023-11-19T03:40:09;11.30;99.90
52513;DHT22;38422;53.172;6.974;2023-11-19T03:42:35;11.30;99.90
52513;DHT22;38422;53.172;6.974;2023-11-19T03:45:01;11.30;99.90
52513;DHT22;38422;53.172;6.974;2023-11-19T03:47:29;11.30;99.90
52513;DHT22;38422;53.172;6.974;2023-11-19T03:49:55;11.30;99.90
52513;DHT22;38422;53.172;6.974;2023-11-19T03:52:20;11.30;99.90
52513;DHT22;38422;53.172;6.974;2023-11-19T03:54:46;11.30;99.90
52513;DHT22;38422;53.172;6.974;2023-11-19T03:57:12;11.30;99.90
52513;DHT22;38422;53.172;6.974;2023-11-19T03:59:39;11.30;99.90
52513;DHT22;38422;53.172;6.974;2023-11-19T04:02:05;11.30;99.90
52513;DHT22;38422;53.172;6.974;2023-11-19T04:04:32;11.30;99.90
52513;DHT22;38422;53.172;6.974;2023-11-19T04:06:59;11.30;99.90
52513;DHT22;38422;53.172;6.974;2023-11-19T04:09:26;11.30;99.90
52513;DHT22;38422;53.172;6.974;2023-11-19T04:11:52;11.40;99.90
52513;DHT22;38422;53.172;6.974;2023-11-19T04:14:17;11.40;99.90
52513;DHT22;38422;53.172;6.974;2023-11-19T04:16:46;11.40;99.90
52513;DHT22;38422;53.172;6.974;2023-11-19T04:19:12;11.40;99.90
52513;DHT22;38422;53.172;6.974;2023-11-19T04:21:41;11.40;99.90
52513;DHT22;38422;53.172;6.974;2023-11-19T04:24:10;11.40;99.90
52513;DHT22;38422;53.172;6.974;2023-11-19T04:26:41;11.40;99.90
52513;DHT22;38422;53.172;6.974;2023-11-19T04:29:12;11.40;99.90
52513;DHT22;38422;53.172;6.974;2023-11-19T04:31:38;11.40;99.90
52513;DHT22;38422;53.172;6.974;2023-11-19T04:34:05;11.40;99.90
52513;DHT22;38422;53.172;6.974;2023-11-19T04:36:34;11.40;99.90
52513;DHT22;38422;53.172;6.974;2023-11-19T04:39:00;11.40;99.90
52513;DHT22;38422;53.172;6.974;2023-11-19T04:41:27;11.40;99.90
52513;DHT22;38422;53.172;6.974;2023-11-19T04:43:55;11.40;99.90
52513;DHT22;38422;53.172;6.974;2023-11-19T04:46:21;11.40;99.90
52513;DHT22;38422;53.172;6.974;2023-11-19T04:48:48;11.30;99.90
52513;DHT22;38422;53.172;6.974;2023-11-19T04:51:13;11.30;99.90
52513;DHT22;38422;53.172;6.974;2023-11-19T04:53:39;11.30;99.90
52513;DHT22;38422;53.172;6.974;2023-11-19T04:56:11;11.30;99.90
52513;DHT22;38422;53.172;6.974;2023-11-19T04:58:38;11.30;99.90
52513;DHT22;38422;53.172;6.974;2023-11-19T05:01:04;11.30;99.90
52513;DHT22;38422;53.172;6.974;2023-11-19T05:03:31;11.30;99.90
52513;DHT22;38422;53.172;6.974;2023-11-19T05:05:57;11.30;99.90
52513;DHT22;38422;53.172;6.974;2023-11-19T05:08:23;11.30;99.90
52513;DHT22;38422;53.172;6.974;2023-11-19T05:10:49;11.20;99.90
52513;DHT22;38422;53.172;6.974;2023-11-19T05:13:14;11.20;99.90
52513;DHT22;38422;53.172;6.974;2023-11-19T05:15:40;11.20;99.90
52513;DHT22;38422;53.172;6.974;2023-11-19T05:18:06;11.20;99.90
52513;DHT22;38422;53.172;6.974;2023-11-19T05:20:32;11.20;99.90
52513;DHT22;38422;53.172;6.974;2023-11-19T05:22:58;11.20;99.90
52513;DHT22;38422;53.172;6.974;2023-11-19T05:25:25;11.20;99.90
52513;DHT22;38422;53.172;6.974;2023-11-19T05:27:52;11.20;99.90
52513;DHT22;38422;53.172;6.974;2023-11-19T05:30:18;11.10;99.90
52513;DHT22;38422;53.172;6.974;2023-11-19T05:32:44;11.10;99.90
52513;DHT22;38422;53.172;6.974;2023-11-19T05:35:10;11.10;99.90
52513;DHT22;38422;53.172;6.974;2023-11-19T05:37:36;11.10;99.90
52513;DHT22;38422;53.172;6.974;2023-11-19T05:40:02;11.10;99.90
52513;DHT22;38422;53.172;6.974;2023-11-19T05:42:32;11.20;99.90
52513;DHT22;38422;53.172;6.974;2023-11-19T05:44:57;11.10;99.90
52513;DHT22;38422;53.172;6.974;2023-11-19T05:47:23;11.20;99.90
52513;DHT22;38422;53.172;6.974;2023-11-19T05:49:49;11.20;99.90
52513;DHT22;38422;53.172;6.974;2023-11-19T05:52:14;11.20;99.90
52513;DHT22;38422;53.172;6.974;2023-11-19T05:54:40;11.20;99.90
52513;DHT22;38422;53.172;6.974;2023-11-19T05:57:07;11.10;99.90
52513;DHT22;38422;53.172;6.974;2023-11-19T05:59:36;11.10;99.90
52513;DHT22;38422;53.172;6.974;2023-11-19T06:02:02;11.20;99.90
52513;DHT22;38422;53.172;6.974;2023-11-19T06:04:28;11.10;99.90
52513;DHT22;38422;53.172;6.974;2023-11-19T06:06:54;11.10;99.90
52513;DHT22;38422;53.172;6.974;2023-11-19T06:09:21;11.10;99.90
52513;DHT22;38422;53.172;6.974;2023-11-19T06:11:51;11.10;99.90
52513;DHT22;38422;53.172;6.974;2023-11-19T06:14:18;11.10;99.90
52513;DHT22;38422;53.172;6.974;2023-11-19T06:16:44;11.10;99.90
52513;DHT22;38422;53.172;6.974;2023-11-19T06:19:10;11.00;99.90
52513;DHT22;38422;53.172;6.974;2023-11-19T06:21:37;11.10;99.90
52513;DHT22;38422;53.172;6.974;2023-11-19T06:24:03;11.00;99.90
52513;DHT22;38422;53.172;6.974;2023-11-19T06:26:29;11.00;99.90
52513;DHT22;38422;53.172;6.974;2023-11-19T06:28:54;11.00;99.90
52513;DHT22;38422;53.172;6.974;2023-11-19T06:31:20;11.00;99.90
52513;DHT22;38422;53.172;6.974;2023-11-19T06:33:46;11.00;99.90
52513;DHT22;38422;53.172;6.974;2023-11-19T06:36:14;11.00;99.90
52513;DHT22;38422;53.172;6.974;2023-11-19T06:38:42;11.00;99.90
52513;DHT22;38422;53.172;6.974;2023-11-19T06:41:08;10.90;99.90
52513;DHT22;38422;53.172;6.974;2023-11-19T06:43:35;10.90;99.90
52513;DHT22;38422;53.172;6.974;2023-11-19T06:46:02;10.90;99.90
52513;DHT22;38422;53.172;6.974;2023-11-19T06:48:27;11.00;99.90
52513;DHT22;38422;53.172;6.974;2023-11-19T06:50:53;11.00;99.90
52513;DHT22;38422;53.172;6.974;2023-11-19T06:53:19;11.00;99.90
52513;DHT22;38422;53.172;6.974;2023-11-19T06:55:44;11.00;99.90
52513;DHT22;38422;53.172;6.974;2023-11-19T06:58:11;11.00;99.90
52513;DHT22;38422;53.172;6.974;2023-11-19T07:00:37;11.00;99.90
52513;DHT22;38422;53.172;6.974;2023-11-19T07:03:03;10.90;99.90
52513;DHT22;38422;53.172;6.974;2023-11-19T07:05:29;10.90;99.90
52513;DHT22;38422;53.172;6.974;2023-11-19T07:07:55;10.90;99.90
52513;DHT22;38422;53.172;6.974;2023-11-19T07:10:21;10.90;99.90
52513;DHT22;38422;53.172;6.974;2023-11-19T07:12:47;10.90;99.90
52513;DHT22;38422;53.172;6.974;2023-11-19T07:15:15;10.90;99.90
52513;DHT22;38422;53.172;6.974;2023-11-19T07:17:43;10.90;99.90
52513;DHT22;38422;53.172;6.974;2023-11-19T07:20:10;10.90;99.90
52513;DHT22;38422;53.172;6.974;2023-11-19T07:22:39;10.90;99.90
52513;DHT22;38422;53.172;6.974;2023-11-19T07:25:04;10.90;99.90
52513;DHT22;38422;53.172;6.974;2023-11-19T07:27:30;10.90;99.90
52513;DHT22;38422;53.172;6.974;2023-11-19T07:29:56;10.90;99.90
52513;DHT22;38422;53.172;6.974;2023-11-19T07:32:21;10.90;99.90
52513;DHT22;38422;53.172;6.974;2023-11-19T07:34:47;10.90;99.90
52513;DHT22;38422;53.172;6.974;2023-11-19T07:37:13;10.90;99.90
52513;DHT22;38422;53.172;6.974;2023-11-19T07:39:38;10.90;99.90
52513;DHT22;38422;53.172;6.974;2023-11-19T07:42:06;10.90;99.90
52513;DHT22;38422;53.172;6.974;2023-11-19T07:44:32;10.80;99.90
52513;DHT22;38422;53.172;6.974;2023-11-19T07:46:57;10.90;99.90
52513;DHT22;38422;53.172;6.974;2023-11-19T07:49:24;10.90;99.90
52513;DHT22;38422;53.172;6.974;2023-11-19T07:51:49;10.90;99.90
52513;DHT22;38422;53.172;6.974;2023-11-19T07:54:15;10.90;99.90
52513;DHT22;38422;53.172;6.974;2023-11-19T07:56:41;10.80;99.90
52513;DHT22;38422;53.172;6.974;2023-11-19T07:59:06;10.80;99.90
52513;DHT22;38422;53.172;6.974;2023-11-19T08:01:32;10.90;99.90
52513;DHT22;38422;53.172;6.974;2023-11-19T08:03:58;10.90;99.90
52513;DHT22;38422;53.172;6.974;2023-11-19T08:06:24;10.90;99.90
52513;DHT22;38422;53.172;6.974;2023-11-19T08:08:50;10.90;99.90
52513;DHT22;38422;53.172;6.974;2023-11-19T08:11:15;10.90;99.90
52513;DHT22;38422;53.172;6.974;2023-11-19T08:13:41;10.90;99.90
52513;DHT22;38422;53.172;6.974;2023-11-19T08:16:07;10.90;99.90
52513;DHT22;38422;53.172;6.974;2023-11-19T08:18:33;10.90;99.90
52513;DHT22;38422;53.172;6.974;2023-11-19T08:20:58;10.90;99.90
52513;DHT22;38422;53.172;6.974;2023-11-19T08:23:26;10.90;99.90
52513;DHT22;38422;53.172;6.974;2023-11-19T08:25:54;10.90;99.90
52513;DHT22;38422;53.172;6.974;2023-11-19T08:28:19;10.90;99.90
52513;DHT22;38422;53.172;6.974;2023-11-19T08:30:46;11.00;99.90
52513;DHT22;38422;53.172;6.974;2023-11-19T08:33:11;10.90;99.90
52513;DHT22;38422;53.172;6.974;2023-11-19T08:35:37;10.90;99.90
52513;DHT22;38422;53.172;6.974;2023-11-19T08:38:05;11.00;99.90
52513;DHT22;38422;53.172;6.974;2023-11-19T08:40:31;11.00;99.90
52513;DHT22;38422;53.172;6.974;2023-11-19T08:42:57;11.00;99.90
52513;DHT22;38422;53.172;6.974;2023-11-19T08:45:22;11.00;99.90
52513;DHT22;38422;53.172;6.974;2023-11-19T08:47:49;11.00;99.90
52513;DHT22;38422;53.172;6.974;2023-11-19T08:50:14;11.00;99.90
52513;DHT22;38422;53.172;6.974;2023-11-19T08:52:40;11.00;99.90
52513;DHT22;38422;53.172;6.974;2023-11-19T08:55:06;11.10;99.90
52513;DHT22;38422;53.172;6.974;2023-11-19T08:57:32;11.10;99.90
52513;DHT22;38422;53.172;6.974;2023-11-19T09:00:00;11.10;99.90
52513;DHT22;38422;53.172;6.974;2023-11-19T09:02:26;11.10;99.90
52513;DHT22;38422;53.172;6.974;2023-11-19T09:04:52;11.10;99.90
52513;DHT22;38422;53.172;6.974;2023-11-19T09:07:17;11.10;99.90
52513;DHT22;38422;53.172;6.974;2023-11-19T09:09:43;11.10;99.90
52513;DHT22;38422;53.172;6.974;2023-11-19T09:12:09;11.10;99.90
52513;DHT22;38422;53.172;6.974;2023-11-19T09:14:34;11.20;99.90
52513;DHT22;38422;53.172;6.974;2023-11-19T09:17:00;11.20;99.90
52513;DHT22;38422;53.172;6.974;2023-11-19T09:19:26;11.20;99.90
52513;DHT22;38422;53.172;6.974;2023-11-19T09:21:53;11.20;99.90
52513;DHT22;38422;53.172;6.974;2023-11-19T09:24:19;11.20;99.90
52513;DHT22;38422;53.172;6.974;2023-11-19T09:26:44;11.30;99.90
52513;DHT22;38422;53.172;6.974;2023-11-19T09:29:11;11.30;99.90
52513;DHT22;38422;53.172;6.974;2023-11-19T09:31:40;11.30;99.90
52513;DHT22;38422;53.172;6.974;2023-11-19T09:34:06;11.30;99.90
52513;DHT22;38422;53.172;6.974;2023-11-19T09:36:31;11.30;99.90
52513;DHT22;38422;53.172;6.974;2023-11-19T09:38:57;11.40;99.90
52513;DHT22;38422;53.172;6.974;2023-11-19T09:41:25;11.40;99.90
52513;DHT22;38422;53.172;6.974;2023-11-19T09:43:53;11.50;99.90
52513;DHT22;38422;53.172;6.974;2023-11-19T09:46:19;11.60;99.90
52513;DHT22;38422;53.172;6.974;2023-11-19T09:48:46;11.60;99.90
52513;DHT22;38422;53.172;6.974;2023-11-19T09:51:13;11.70;99.90
52513;DHT22;38422;53.172;6.974;2023-11-19T09:53:40;11.60;99.90
52513;DHT22;38422;53.172;6.974;2023-11-19T09:56:06;11.70;99.90
52513;DHT22;38422;53.172;6.974;2023-11-19T09:58:33;11.60;99.90
52513;DHT22;38422;53.172;6.974;2023-11-19T10:01:00;11.60;99.90
52513;DHT22;38422;53.172;6.974;2023-11-19T10:03:35;11.60;99.90
52513;DHT22;38422;53.172;6.974;2023-11-19T10:06:03;11.60;99.90
52513;DHT22;38422;53.172;6.974;2023-11-19T10:08:30;11.70;99.90
52513;DHT22;38422;53.172;6.974;2023-11-19T10:10:55;11.70;99.90
52513;DHT22;38422;53.172;6.974;2023-11-19T10:13:26;11.80;99.90
52513;DHT22;38422;53.172;6.974;2023-11-19T10:15:53;11.90;99.90
52513;DHT22;38422;53.172;6.974;2023-11-19T10:18:23;11.90;99.90
52513;DHT22;38422;53.172;6.974;2023-11-19T10:20:49;11.90;99.90
52513;DHT22;38422;53.172;6.974;2023-11-19T10:23:15;12.00;99.90
52513;DHT22;38422;53.172;6.974;2023-11-19T10:25:40;12.10;99.90
52513;DHT22;38422;53.172;6.974;2023-11-19T10:28:06;12.20;99.90
52513;DHT22;38422;53.172;6.974;2023-11-19T10:30:33;12.20;99.90
52513;DHT22;38422;53.172;6.974;2023-11-19T10:33:07;12.10;99.90
52513;DHT22;38422;53.172;6.974;2023-11-19T10:35:34;12.00;99.90
52513;DHT22;38422;53.172;6.974;2023-11-19T10:38:20;11.90;99.90
52513;DHT22;38422;53.172;6.974;2023-11-19T10:40:48;11.80;99.90
52513;DHT22;38422;53.172;6.974;2023-11-19T10:43:14;11.70;99.90
52513;DHT22;38422;53.172;6.974;2023-11-19T10:45:40;11.80;99.90
52513;DHT22;38422;53.172;6.974;2023-11-19T10:48:06;11.70;99.90
52513;DHT22;38422;53.172;6.974;2023-11-19T10:50:36;11.60;99.90
52513;DHT22;38422;53.172;6.974;2023-11-19T10:53:03;11.60;99.90
52513;DHT22;38422;53.172;6.974;2023-11-19T10:55:33;11.60;99.90
52513;DHT22;38422;53.172;6.974;2023-11-19T10:58:10;11.50;99.90
52513;DHT22;38422;53.172;6.974;2023-11-19T11:00:50;11.50;99.90
52513;DHT22;38422;53.172;6.974;2023-11-19T11:03:21;11.50;99.90
52513;DHT22;38422;53.172;6.974;2023-11-19T11:05:52;11.50;99.90
52513;DHT22;38422;53.172;6.974;2023-11-19T11:08:19;11.50;99.90
52513;DHT22;38422;53.172;6.974;2023-11-19T11:10:52;11.50;99.90
52513;DHT22;38422;53.172;6.974;2023-11-19T11:13:18;11.50;99.90
52513;DHT22;38422;53.172;6.974;2023-11-19T11:15:48;11.50;99.90
52513;DHT22;38422;53.172;6.974;2023-11-19T11:18:15;11.50;99.90
52513;DHT22;38422;53.172;6.974;2023-11-19T11:20:41;11.50;99.90
52513;DHT22;38422;53.172;6.974;2023-11-19T11:26:39;11.50;99.90
52513;DHT22;38422;53.172;6.974;2023-11-19T11:28:52;11.50;99.90
52513;DHT22;38422;53.172;6.974;2023-11-19T11:32:00;11.50;99.90
52513;DHT22;38422;53.172;6.974;2023-11-19T11:34:51;11.60;99.90
52513;DHT22;38422;53.172;6.974;2023-11-19T11:37:32;11.80;99.90
52513;DHT22;38422;53.172;6.974;2023-11-19T11:40:02;11.90;99.90
52513;DHT22;38422;53.172;6.974;2023-11-19T11:42:36;12.00;99.90
52513;DHT22;38422;53.172;6.974;2023-11-19T11:50:16;12.20;99.90
52513;DHT22;38422;53.172;6.974;2023-11-19T11:55:39;12.10;99.90
52513;DHT22;38422;53.172;6.974;2023-11-19T11:58:21;12.10;99.90
52513;DHT22;38422;53.172;6.974;2023-11-19T12:00:48;12.10;99.90
52513;DHT22;38422;53.172;6.974;2023-11-19T12:03:15;12.10;99.90
52513;DHT22;38422;53.172;6.974;2023-11-19T12:05:41;12.00;99.90
52513;DHT22;38422;53.172;6.974;2023-11-19T12:08:09;12.00;99.90
52513;DHT22;38422;53.172;6.974;2023-11-19T12:10:43;11.90;99.90
52513;DHT22;38422;53.172;6.974;2023-11-19T12:13:10;11.90;99.90
52513;DHT22;38422;53.172;6.974;2023-11-19T12:18:27;12.00;99.90
52513;DHT22;38422;53.172;6.974;2023-11-19T12:20:54;12.00;99.90
52513;DHT22;38422;53.172;6.974;2023-11-19T12:23:19;11.90;99.90
52513;DHT22;38422;53.172;6.974;2023-11-19T12:25:48;11.80;99.90
52513;DHT22;38422;53.172;6.974;2023-11-19T12:28:15;11.80;99.90
52513;DHT22;38422;53.172;6.974;2023-11-19T12:30:46;11.80;99.90
52513;DHT22;38422;53.172;6.974;2023-11-19T12:33:15;11.70;99.90
52513;DHT22;38422;53.172;6.974;2023-11-19T12:35:45;11.70;99.90
52513;DHT22;38422;53.172;6.974;2023-11-19T12:38:19;11.80;99.90
52513;DHT22;38422;53.172;6.974;2023-11-19T12:41:05;11.90;99.90
52513;DHT22;38422;53.172;6.974;2023-11-19T12:43:31;12.10;99.90
52513;DHT22;38422;53.172;6.974;2023-11-19T12:45:57;12.30;99.90
52513;DHT22;38422;53.172;6.974;2023-11-19T12:48:23;12.40;99.90
52513;DHT22;38422;53.172;6.974;2023-11-19T12:50:58;12.50;99.90
52513;DHT22;38422;53.172;6.974;2023-11-19T12:53:27;12.50;99.90
52513;DHT22;38422;53.172;6.974;2023-11-19T12:55:54;12.60;99.90
52513;DHT22;38422;53.172;6.974;2023-11-19T12:58:35;12.60;99.90
52513;DHT22;38422;53.172;6.974;2023-11-19T13:01:05;12.50;99.90
52513;DHT22;38422;53.172;6.974;2023-11-19T13:03:40;12.50;99.90
52513;DHT22;38422;53.172;6.974;2023-11-19T13:06:11;12.40;99.90
52513;DHT22;38422;53.172;6.974;2023-11-19T13:08:39;12.40;99.90
52513;DHT22;38422;53.172;6.974;2023-11-19T13:11:06;12.30;99.90
52513;DHT22;38422;53.172;6.974;2023-11-19T13:13:32;12.20;99.90
52513;DHT22;38422;53.172;6.974;2023-11-19T13:16:05;12.20;99.90
52513;DHT22;38422;53.172;6.974;2023-11-19T13:18:31;12.10;99.90
52513;DHT22;38422;53.172;6.974;2023-11-19T13:20:57;12.10;99.90
52513;DHT22;38422;53.172;6.974;2023-11-19T13:23:23;12.10;99.90
52513;DHT22;38422;53.172;6.974;2023-11-19T13:25:49;12.20;99.90
52513;DHT22;38422;53.172;6.974;2023-11-19T13:28:14;12.20;99.90
52513;DHT22;38422;53.172;6.974;2023-11-19T13:30:40;12.20;99.90
52513;DHT22;38422;53.172;6.974;2023-11-19T13:33:06;12.20;99.90
52513;DHT22;38422;53.172;6.974;2023-11-19T13:35:32;12.20;99.90
52513;DHT22;38422;53.172;6.974;2023-11-19T13:38:05;12.10;99.90
52513;DHT22;38422;53.172;6.974;2023-11-19T13:40:30;12.20;99.90
52513;DHT22;38422;53.172;6.974;2023-11-19T13:42:56;12.20;99.90
52513;DHT22;38422;53.172;6.974;2023-11-19T13:45:24;12.20;99.90
52513;DHT22;38422;53.172;6.974;2023-11-19T13:47:50;12.20;99.90
52513;DHT22;38422;53.172;6.974;2023-11-19T13:50:16;12.20;99.90
52513;DHT22;38422;53.172;6.974;2023-11-19T13:52:44;12.20;99.90
52513;DHT22;38422;53.172;6.974;2023-11-19T13:55:11;12.20;99.90
52513;DHT22;38422;53.172;6.974;2023-11-19T13:57:46;12.10;99.90
52513;DHT22;38422;53.172;6.974;2023-11-19T14:00:14;12.10;99.90
52513;DHT22;38422;53.172;6.974;2023-11-19T14:02:41;12.10;99.90
52513;DHT22;38422;53.172;6.974;2023-11-19T14:05:08;12.00;99.90
52513;DHT22;38422;53.172;6.974;2023-11-19T14:07:34;12.00;99.90
52513;DHT22;38422;53.172;6.974;2023-11-19T14:10:00;12.00;99.90
52513;DHT22;38422;53.172;6.974;2023-11-19T14:12:26;12.00;99.90
52513;DHT22;38422;53.172;6.974;2023-11-19T14:14:52;12.00;99.90
52513;DHT22;38422;53.172;6.974;2023-11-19T14:17:18;12.00;99.90
52513;DHT22;38422;53.172;6.974;2023-11-19T14:19:44;11.90;99.90
52513;DHT22;38422;53.172;6.974;2023-11-19T14:22:10;11.90;99.90
52513;DHT22;38422;53.172;6.974;2023-11-19T14:24:36;11.90;99.90
52513;DHT22;38422;53.172;6.974;2023-11-19T14:27:04;11.80;99.90
52513;DHT22;38422;53.172;6.974;2023-11-19T14:29:33;11.80;99.90
52513;DHT22;38422;53.172;6.974;2023-11-19T14:32:00;11.80;99.90
52513;DHT22;38422;53.172;6.974;2023-11-19T14:34:26;11.80;99.90
52513;DHT22;38422;53.172;6.974;2023-11-19T14:36:52;11.80;99.90
52513;DHT22;38422;53.172;6.974;2023-11-19T14:39:19;11.70;99.90
52513;DHT22;38422;53.172;6.974;2023-11-19T14:41:48;11.70;99.90
52513;DHT22;38422;53.172;6.974;2023-11-19T14:44:17;11.70;99.90
52513;DHT22;38422;53.172;6.974;2023-11-19T14:46:45;11.70;99.90
52513;DHT22;38422;53.172;6.974;2023-11-19T14:49:11;11.60;99.90
52513;DHT22;38422;53.172;6.974;2023-11-19T14:51:39;11.60;99.90
52513;DHT22;38422;53.172;6.974;2023-11-19T14:54:05;11.60;99.90
52513;DHT22;38422;53.172;6.974;2023-11-19T14:56:31;11.60;99.90
52513;DHT22;38422;53.172;6.974;2023-11-19T14:59:00;11.50;99.90
52513;DHT22;38422;53.172;6.974;2023-11-19T15:01:25;11.50;99.90
52513;DHT22;38422;53.172;6.974;2023-11-19T15:03:52;11.50;99.90
52513;DHT22;38422;53.172;6.974;2023-11-19T15:06:18;11.50;99.90
52513;DHT22;38422;53.172;6.974;2023-11-19T15:08:44;11.50;99.90
52513;DHT22;38422;53.172;6.974;2023-11-19T15:11:13;11.40;99.90
52513;DHT22;38422;53.172;6.974;2023-11-19T15:13:39;11.40;99.90
52513;DHT22;38422;53.172;6.974;2023-11-19T15:16:07;11.40;99.90
52513;DHT22;38422;53.172;6.974;2023-11-19T15:18:36;11.40;99.90
52513;DHT22;38422;53.172;6.974;2023-11-19T15:21:05;11.40;99.90
52513;DHT22;38422;53.172;6.974;2023-11-19T15:23:34;11.40;99.90
52513;DHT22;38422;53.172;6.974;2023-11-19T15:25:59;11.40;99.90
52513;DHT22;38422;53.172;6.974;2023-11-19T15:28:25;11.40;99.90
52513;DHT22;38422;53.172;6.974;2023-11-19T15:30:51;11.40;99.90
52513;DHT22;38422;53.172;6.974;2023-11-19T15:33:17;11.40;99.90
52513;DHT22;38422;53.172;6.974;2023-11-19T15:35:46;11.30;99.90
52513;DHT22;38422;53.172;6.974;2023-11-19T15:38:11;11.30;99.90
52513;DHT22;38422;53.172;6.974;2023-11-19T15:40:37;11.30;99.90
52513;DHT22;38422;53.172;6.974;2023-11-19T15:43:04;11.30;99.90
52513;DHT22;38422;53.172;6.974;2023-11-19T15:45:30;11.30;99.90
52513;DHT22;38422;53.172;6.974;2023-11-19T15:47:55;11.30;99.90
52513;DHT22;38422;53.172;6.974;2023-11-19T15:50:21;11.20;99.90